sensor_id;sensor_type;location;lat;lon;timestamp;P1;durP1;ratioP1;P2;durP2;ratioP2
39104;SDS011;46464;51.154;13.812;2023-03-01T00:01:15;33.83;;;22.07;;
39104;SDS011;46464;51.154;13.812;2023-03-01T00:03:44;31.55;;;19.73;;
39104;SDS011;46464;51.154;13.812;2023-03-01T00:08:40;32.90;;;21.00;;
39104;SDS011;46464;51.154;13.812;2023-03-01T00:11:28;37.23;;;23.33;;
39104;SDS011;46464;51.154;13.812;2023-03-01T00:13:59;34.50;;;21.57;;
39104;SDS011;46464;51.154;13.812;2023-03-01T00:16:28;31.10;;;20.73;;
39104;SDS011;46464;51.154;13.812;2023-03-01T00:18:57;34.00;;;21.87;;
39104;SDS011;46464;51.154;13.812;2023-03-01T00:21:25;30.80;;;20.60;;
39104;SDS011;46464;51.154;13.812;2023-03-01T00:23:54;34.60;;;22.40;;
39104;SDS011;46464;51.154;13.812;2023-03-01T00:26:22;36.07;;;23.30;;
39104;SDS011;46464;51.154;13.812;2023-03-01T00:28:49;31.53;;;21.67;;
39104;SDS011;46464;51.154;13.812;2023-03-01T00:31:21;35.10;;;21.83;;
39104;SDS011;46464;51.154;13.812;2023-03-01T00:33:51;36.23;;;23.30;;
39104;SDS011;46464;51.154;13.812;2023-03-01T00:36:19;35.80;;;22.10;;
39104;SDS011;46464;51.154;13.812;2023-03-01T00:38:46;36.55;;;23.35;;
39104;SDS011;46464;51.154;13.812;2023-03-01T00:41:13;39.42;;;24.60;;
39104;SDS011;46464;51.154;13.812;2023-03-01T00:43:41;38.73;;;24.00;;
39104;SDS011;46464;51.154;13.812;2023-03-01T00:46:11;41.70;;;25.70;;
39104;SDS011;46464;51.154;13.812;2023-03-01T00:48:39;37.13;;;23.80;;
39104;SDS011;46464;51.154;13.812;2023-03-01T00:51:17;38.58;;;23.55;;
39104;SDS011;46464;51.154;13.812;2023-03-01T00:53:46;40.47;;;25.67;;
39104;SDS011;46464;51.154;13.812;2023-03-01T00:56:13;40.67;;;25.53;;
39104;SDS011;46464;51.154;13.812;2023-03-01T00:58:40;40.33;;;25.63;;
39104;SDS011;46464;51.154;13.812;2023-03-01T01:01:08;38.13;;;24.40;;
39104;SDS011;46464;51.154;13.812;2023-03-01T01:06:17;37.33;;;23.07;;
39104;SDS011;46464;51.154;13.812;2023-03-01T01:08:45;37.97;;;24.60;;
39104;SDS011;46464;51.154;13.812;2023-03-01T01:11:12;42.05;;;24.55;;
39104;SDS011;46464;51.154;13.812;2023-03-01T01:16:05;37.20;;;23.25;;
39104;SDS011;46464;51.154;13.812;2023-03-01T01:21:06;36.27;;;23.17;;
39104;SDS011;46464;51.154;13.812;2023-03-01T01:23:34;38.33;;;24.20;;
39104;SDS011;46464;51.154;13.812;2023-03-01T01:26:08;38.13;;;23.42;;
39104;SDS011;46464;51.154;13.812;2023-03-01T01:28:39;36.13;;;22.57;;
39104;SDS011;46464;51.154;13.812;2023-03-01T01:31:06;36.85;;;24.25;;
39104;SDS011;46464;51.154;13.812;2023-03-01T01:33:33;39.77;;;23.47;;
39104;SDS011;46464;51.154;13.812;2023-03-01T01:36:00;34.20;;;22.97;;
39104;SDS011;46464;51.154;13.812;2023-03-01T01:38:27;36.55;;;22.20;;
39104;SDS011;46464;51.154;13.812;2023-03-01T01:40:53;34.40;;;21.02;;
39104;SDS011;46464;51.154;13.812;2023-03-01T01:46:07;32.87;;;20.67;;
39104;SDS011;46464;51.154;13.812;2023-03-01T01:52:20;32.22;;;19.75;;
39104;SDS011;46464;51.154;13.812;2023-03-01T01:57:33;31.20;;;20.17;;
39104;SDS011;46464;51.154;13.812;2023-03-01T02:00:18;32.33;;;19.97;;
39104;SDS011;46464;51.154;13.812;2023-03-01T02:02:48;32.57;;;19.50;;
39104;SDS011;46464;51.154;13.812;2023-03-01T02:05:24;33.43;;;19.50;;
39104;SDS011;46464;51.154;13.812;2023-03-01T02:07:59;35.73;;;19.43;;
39104;SDS011;46464;51.154;13.812;2023-03-01T02:10:31;30.20;;;20.17;;
39104;SDS011;46464;51.154;13.812;2023-03-01T02:13:00;30.20;;;19.43;;
39104;SDS011;46464;51.154;13.812;2023-03-01T02:15:28;30.87;;;19.53;;
39104;SDS011;46464;51.154;13.812;2023-03-01T02:17:59;28.43;;;17.73;;
39104;SDS011;46464;51.154;13.812;2023-03-01T02:23:17;29.77;;;18.93;;
39104;SDS011;46464;51.154;13.812;2023-03-01T02:30:39;29.10;;;17.63;;
39104;SDS011;46464;51.154;13.812;2023-03-01T02:33:27;29.37;;;17.37;;
39104;SDS011;46464;51.154;13.812;2023-03-01T02:35:55;30.37;;;18.33;;
39104;SDS011;46464;51.154;13.812;2023-03-01T02:38:22;26.77;;;15.43;;
39104;SDS011;46464;51.154;13.812;2023-03-01T02:40:50;24.57;;;15.87;;
39104;SDS011;46464;51.154;13.812;2023-03-01T02:43:18;23.53;;;15.87;;
39104;SDS011;46464;51.154;13.812;2023-03-01T02:45:51;25.20;;;15.43;;
39104;SDS011;46464;51.154;13.812;2023-03-01T02:48:19;25.57;;;15.60;;
39104;SDS011;46464;51.154;13.812;2023-03-01T02:51:06;26.57;;;16.33;;
39104;SDS011;46464;51.154;13.812;2023-03-01T02:56:28;24.67;;;16.73;;
39104;SDS011;46464;51.154;13.812;2023-03-01T02:58:56;26.43;;;16.80;;
39104;SDS011;46464;51.154;13.812;2023-03-01T03:01:27;23.57;;;16.23;;
39104;SDS011;46464;51.154;13.812;2023-03-01T03:04:05;27.13;;;15.60;;
39104;SDS011;46464;51.154;13.812;2023-03-01T03:06:33;27.80;;;16.90;;
39104;SDS011;46464;51.154;13.812;2023-03-01T03:09:00;26.95;;;16.77;;
39104;SDS011;46464;51.154;13.812;2023-03-01T03:11:26;27.70;;;17.23;;
39104;SDS011;46464;51.154;13.812;2023-03-01T03:13:53;24.17;;;15.82;;
39104;SDS011;46464;51.154;13.812;2023-03-01T03:16:19;26.02;;;15.88;;
39104;SDS011;46464;51.154;13.812;2023-03-01T03:18:46;25.23;;;15.57;;
39104;SDS011;46464;51.154;13.812;2023-03-01T03:21:13;30.70;;;16.00;;
39104;SDS011;46464;51.154;13.812;2023-03-01T03:23:40;25.90;;;16.30;;
39104;SDS011;46464;51.154;13.812;2023-03-01T03:26:07;26.23;;;15.60;;
39104;SDS011;46464;51.154;13.812;2023-03-01T03:28:34;25.00;;;15.38;;
39104;SDS011;46464;51.154;13.812;2023-03-01T03:31:01;29.57;;;15.90;;
39104;SDS011;46464;51.154;13.812;2023-03-01T03:33:30;24.67;;;15.70;;
39104;SDS011;46464;51.154;13.812;2023-03-01T03:35:57;26.20;;;16.23;;
39104;SDS011;46464;51.154;13.812;2023-03-01T03:38:24;27.30;;;16.35;;
39104;SDS011;46464;51.154;13.812;2023-03-01T03:43:20;25.53;;;15.40;;
39104;SDS011;46464;51.154;13.812;2023-03-01T03:45:48;24.53;;;15.27;;
39104;SDS011;46464;51.154;13.812;2023-03-01T03:48:23;27.90;;;16.03;;
39104;SDS011;46464;51.154;13.812;2023-03-01T03:50:54;24.30;;;15.30;;
39104;SDS011;46464;51.154;13.812;2023-03-01T03:53:23;27.50;;;16.33;;
39104;SDS011;46464;51.154;13.812;2023-03-01T03:55:51;30.23;;;17.60;;
39104;SDS011;46464;51.154;13.812;2023-03-01T03:58:18;26.63;;;16.53;;
39104;SDS011;46464;51.154;13.812;2023-03-01T04:00:46;31.20;;;16.77;;
39104;SDS011;46464;51.154;13.812;2023-03-01T04:03:14;28.63;;;17.47;;
39104;SDS011;46464;51.154;13.812;2023-03-01T04:05:42;24.60;;;15.03;;
39104;SDS011;46464;51.154;13.812;2023-03-01T04:08:09;27.95;;;15.65;;
39104;SDS011;46464;51.154;13.812;2023-03-01T04:10:40;26.33;;;15.17;;
39104;SDS011;46464;51.154;13.812;2023-03-01T04:13:12;26.07;;;15.20;;
39104;SDS011;46464;51.154;13.812;2023-03-01T04:15:40;22.37;;;14.73;;
39104;SDS011;46464;51.154;13.812;2023-03-01T04:18:11;25.90;;;15.63;;
39104;SDS011;46464;51.154;13.812;2023-03-01T04:20:40;25.07;;;15.97;;
39104;SDS011;46464;51.154;13.812;2023-03-01T04:25:40;28.80;;;16.27;;
39104;SDS011;46464;51.154;13.812;2023-03-01T04:28:08;23.60;;;15.47;;
39104;SDS011;46464;51.154;13.812;2023-03-01T04:30:35;26.83;;;16.27;;
39104;SDS011;46464;51.154;13.812;2023-03-01T04:33:03;27.00;;;15.30;;
39104;SDS011;46464;51.154;13.812;2023-03-01T04:35:34;28.70;;;16.57;;
39104;SDS011;46464;51.154;13.812;2023-03-01T04:38:03;29.17;;;16.27;;
39104;SDS011;46464;51.154;13.812;2023-03-01T04:40:30;27.13;;;15.70;;
39104;SDS011;46464;51.154;13.812;2023-03-01T04:42:56;26.70;;;16.67;;
39104;SDS011;46464;51.154;13.812;2023-03-01T04:45:23;27.52;;;16.75;;
39104;SDS011;46464;51.154;13.812;2023-03-01T04:47:49;28.20;;;17.30;;
39104;SDS011;46464;51.154;13.812;2023-03-01T04:50:18;26.87;;;18.03;;
39104;SDS011;46464;51.154;13.812;2023-03-01T04:52:50;31.07;;;17.83;;
39104;SDS011;46464;51.154;13.812;2023-03-01T04:55:16;27.17;;;17.30;;
39104;SDS011;46464;51.154;13.812;2023-03-01T04:57:43;26.15;;;16.02;;
39104;SDS011;46464;51.154;13.812;2023-03-01T05:00:10;28.73;;;15.75;;
39104;SDS011;46464;51.154;13.812;2023-03-01T05:02:49;23.75;;;15.20;;
39104;SDS011;46464;51.154;13.812;2023-03-01T05:05:22;22.80;;;14.97;;
39104;SDS011;46464;51.154;13.812;2023-03-01T05:07:55;29.53;;;17.03;;
39104;SDS011;46464;51.154;13.812;2023-03-01T05:10:24;28.60;;;15.97;;
39104;SDS011;46464;51.154;13.812;2023-03-01T05:12:56;25.97;;;16.87;;
39104;SDS011;46464;51.154;13.812;2023-03-01T05:15:24;26.10;;;17.10;;
39104;SDS011;46464;51.154;13.812;2023-03-01T05:17:53;28.00;;;17.10;;
39104;SDS011;46464;51.154;13.812;2023-03-01T05:20:20;27.73;;;16.47;;
39104;SDS011;46464;51.154;13.812;2023-03-01T05:22:51;27.53;;;17.00;;
39104;SDS011;46464;51.154;13.812;2023-03-01T05:25:20;27.60;;;15.90;;
39104;SDS011;46464;51.154;13.812;2023-03-01T05:27:47;27.80;;;16.97;;
39104;SDS011;46464;51.154;13.812;2023-03-01T05:32:42;27.60;;;16.33;;
39104;SDS011;46464;51.154;13.812;2023-03-01T05:35:10;26.07;;;15.83;;
39104;SDS011;46464;51.154;13.812;2023-03-01T05:37:40;25.87;;;16.53;;
39104;SDS011;46464;51.154;13.812;2023-03-01T05:40:09;28.20;;;15.73;;
39104;SDS011;46464;51.154;13.812;2023-03-01T05:42:42;28.17;;;16.87;;
39104;SDS011;46464;51.154;13.812;2023-03-01T05:45:10;29.10;;;15.90;;
39104;SDS011;46464;51.154;13.812;2023-03-01T05:47:39;28.77;;;16.83;;
39104;SDS011;46464;51.154;13.812;2023-03-01T05:50:21;30.00;;;16.70;;
39104;SDS011;46464;51.154;13.812;2023-03-01T05:52:50;31.77;;;16.97;;
39104;SDS011;46464;51.154;13.812;2023-03-01T05:55:24;28.37;;;16.77;;
39104;SDS011;46464;51.154;13.812;2023-03-01T05:57:53;25.20;;;16.17;;
39104;SDS011;46464;51.154;13.812;2023-03-01T06:00:20;25.92;;;16.30;;
39104;SDS011;46464;51.154;13.812;2023-03-01T06:03:13;28.13;;;16.73;;
39104;SDS011;46464;51.154;13.812;2023-03-01T06:05:41;28.87;;;16.43;;
39104;SDS011;46464;51.154;13.812;2023-03-01T06:08:09;27.53;;;16.17;;
39104;SDS011;46464;51.154;13.812;2023-03-01T06:10:37;32.30;;;17.10;;
39104;SDS011;46464;51.154;13.812;2023-03-01T06:13:05;32.27;;;17.90;;
39104;SDS011;46464;51.154;13.812;2023-03-01T06:15:31;28.33;;;16.23;;
39104;SDS011;46464;51.154;13.812;2023-03-01T06:20:26;27.10;;;17.07;;
39104;SDS011;46464;51.154;13.812;2023-03-01T06:22:54;31.33;;;17.83;;
39104;SDS011;46464;51.154;13.812;2023-03-01T06:25:24;30.25;;;17.67;;
39104;SDS011;46464;51.154;13.812;2023-03-01T06:27:52;33.73;;;18.00;;
39104;SDS011;46464;51.154;13.812;2023-03-01T06:30:20;32.00;;;18.10;;
39104;SDS011;46464;51.154;13.812;2023-03-01T06:32:48;34.50;;;20.27;;
39104;SDS011;46464;51.154;13.812;2023-03-01T06:35:15;34.10;;;20.67;;
39104;SDS011;46464;51.154;13.812;2023-03-01T06:37:44;34.73;;;20.43;;
39104;SDS011;46464;51.154;13.812;2023-03-01T06:40:12;41.17;;;22.13;;
39104;SDS011;46464;51.154;13.812;2023-03-01T06:42:41;37.77;;;21.90;;
39104;SDS011;46464;51.154;13.812;2023-03-01T06:45:10;37.10;;;20.93;;
39104;SDS011;46464;51.154;13.812;2023-03-01T06:47:37;41.80;;;21.87;;
39104;SDS011;46464;51.154;13.812;2023-03-01T06:50:04;37.08;;;22.42;;
39104;SDS011;46464;51.154;13.812;2023-03-01T06:52:32;38.33;;;21.57;;
39104;SDS011;46464;51.154;13.812;2023-03-01T06:54:58;36.70;;;20.42;;
39104;SDS011;46464;51.154;13.812;2023-03-01T06:57:25;43.47;;;23.53;;
39104;SDS011;46464;51.154;13.812;2023-03-01T07:02:19;36.72;;;20.58;;
39104;SDS011;46464;51.154;13.812;2023-03-01T07:04:45;28.42;;;17.33;;
39104;SDS011;46464;51.154;13.812;2023-03-01T07:07:11;41.50;;;23.65;;
39104;SDS011;46464;51.154;13.812;2023-03-01T07:09:38;36.15;;;20.55;;
39104;SDS011;46464;51.154;13.812;2023-03-01T07:12:05;33.10;;;21.65;;
39104;SDS011;46464;51.154;13.812;2023-03-01T07:14:31;36.30;;;22.03;;
39104;SDS011;46464;51.154;13.812;2023-03-01T07:16:58;40.60;;;24.27;;
39104;SDS011;46464;51.154;13.812;2023-03-01T07:19:25;44.33;;;26.42;;
39104;SDS011;46464;51.154;13.812;2023-03-01T07:21:51;42.78;;;25.15;;
39104;SDS011;46464;51.154;13.812;2023-03-01T07:24:18;40.88;;;23.70;;
39104;SDS011;46464;51.154;13.812;2023-03-01T07:26:47;44.63;;;25.63;;
39104;SDS011;46464;51.154;13.812;2023-03-01T07:29:14;40.93;;;25.00;;
39104;SDS011;46464;51.154;13.812;2023-03-01T07:31:41;38.70;;;24.08;;
39104;SDS011;46464;51.154;13.812;2023-03-01T07:34:07;39.15;;;24.33;;
39104;SDS011;46464;51.154;13.812;2023-03-01T07:36:34;43.40;;;25.00;;
39104;SDS011;46464;51.154;13.812;2023-03-01T07:39:00;38.85;;;24.40;;
39104;SDS011;46464;51.154;13.812;2023-03-01T07:41:29;42.30;;;24.67;;
39104;SDS011;46464;51.154;13.812;2023-03-01T07:46:22;44.28;;;25.15;;
39104;SDS011;46464;51.154;13.812;2023-03-01T07:48:48;43.58;;;25.58;;
39104;SDS011;46464;51.154;13.812;2023-03-01T07:51:15;40.72;;;25.08;;
39104;SDS011;46464;51.154;13.812;2023-03-01T07:53:42;46.67;;;26.70;;
39104;SDS011;46464;51.154;13.812;2023-03-01T07:56:09;44.42;;;25.80;;
39104;SDS011;46464;51.154;13.812;2023-03-01T07:58:45;43.20;;;27.07;;
39104;SDS011;46464;51.154;13.812;2023-03-01T08:01:17;44.20;;;26.03;;
39104;SDS011;46464;51.154;13.812;2023-03-01T08:03:45;44.60;;;27.10;;
39104;SDS011;46464;51.154;13.812;2023-03-01T08:08:40;42.83;;;24.90;;
39104;SDS011;46464;51.154;13.812;2023-03-01T08:11:08;42.15;;;24.48;;
39104;SDS011;46464;51.154;13.812;2023-03-01T08:13:37;46.07;;;26.47;;
39104;SDS011;46464;51.154;13.812;2023-03-01T08:16:05;42.30;;;25.97;;
39104;SDS011;46464;51.154;13.812;2023-03-01T08:18:41;43.33;;;25.57;;
39104;SDS011;46464;51.154;13.812;2023-03-01T08:21:10;41.87;;;25.60;;
39104;SDS011;46464;51.154;13.812;2023-03-01T08:23:38;45.30;;;27.10;;
39104;SDS011;46464;51.154;13.812;2023-03-01T08:26:06;46.77;;;27.57;;
39104;SDS011;46464;51.154;13.812;2023-03-01T08:28:35;47.20;;;27.67;;
39104;SDS011;46464;51.154;13.812;2023-03-01T08:31:02;51.63;;;28.93;;
39104;SDS011;46464;51.154;13.812;2023-03-01T08:33:31;51.80;;;31.10;;
39104;SDS011;46464;51.154;13.812;2023-03-01T08:36:04;44.90;;;27.83;;
39104;SDS011;46464;51.154;13.812;2023-03-01T08:38:35;47.80;;;28.37;;
39104;SDS011;46464;51.154;13.812;2023-03-01T08:41:02;52.00;;;30.50;;
39104;SDS011;46464;51.154;13.812;2023-03-01T08:43:29;53.73;;;32.97;;
39104;SDS011;46464;51.154;13.812;2023-03-01T08:45:56;50.25;;;31.88;;
39104;SDS011;46464;51.154;13.812;2023-03-01T08:48:22;48.20;;;31.25;;
39104;SDS011;46464;51.154;13.812;2023-03-01T08:50:50;51.50;;;32.92;;
39104;SDS011;46464;51.154;13.812;2023-03-01T08:53:16;53.20;;;33.17;;
39104;SDS011;46464;51.154;13.812;2023-03-01T08:55:43;59.65;;;33.67;;
39104;SDS011;46464;51.154;13.812;2023-03-01T08:58:09;52.30;;;31.75;;
39104;SDS011;46464;51.154;13.812;2023-03-01T09:00:36;58.53;;;34.05;;
39104;SDS011;46464;51.154;13.812;2023-03-01T09:03:02;49.50;;;31.45;;
39104;SDS011;46464;51.154;13.812;2023-03-01T09:05:31;50.67;;;31.15;;
39104;SDS011;46464;51.154;13.812;2023-03-01T09:07:58;54.07;;;32.23;;
39104;SDS011;46464;51.154;13.812;2023-03-01T09:10:25;47.58;;;30.33;;
39104;SDS011;46464;51.154;13.812;2023-03-01T09:12:52;47.28;;;30.13;;
39104;SDS011;46464;51.154;13.812;2023-03-01T09:15:18;52.30;;;31.23;;
39104;SDS011;46464;51.154;13.812;2023-03-01T09:17:45;52.92;;;32.15;;
39104;SDS011;46464;51.154;13.812;2023-03-01T09:20:11;57.88;;;33.70;;
39104;SDS011;46464;51.154;13.812;2023-03-01T09:22:38;50.20;;;31.60;;
39104;SDS011;46464;51.154;13.812;2023-03-01T09:25:04;46.22;;;29.77;;
39104;SDS011;46464;51.154;13.812;2023-03-01T09:29:58;45.80;;;28.67;;
39104;SDS011;46464;51.154;13.812;2023-03-01T09:32:24;43.50;;;27.77;;
39104;SDS011;46464;51.154;13.812;2023-03-01T09:34:51;44.20;;;28.05;;
39104;SDS011;46464;51.154;13.812;2023-03-01T09:37:46;38.58;;;25.92;;
39104;SDS011;46464;51.154;13.812;2023-03-01T09:40:17;41.28;;;25.40;;
39104;SDS011;46464;51.154;13.812;2023-03-01T09:42:54;32.00;;;22.17;;
39104;SDS011;46464;51.154;13.812;2023-03-01T09:45:35;38.58;;;24.55;;
39104;SDS011;46464;51.154;13.812;2023-03-01T09:48:09;28.83;;;20.10;;
39104;SDS011;46464;51.154;13.812;2023-03-01T09:50:41;31.85;;;22.00;;
39104;SDS011;46464;51.154;13.812;2023-03-01T09:53:16;33.40;;;23.00;;
39104;SDS011;46464;51.154;13.812;2023-03-01T09:55:48;34.60;;;23.10;;
39104;SDS011;46464;51.154;13.812;2023-03-01T10:01:23;34.45;;;22.27;;
39104;SDS011;46464;51.154;13.812;2023-03-01T10:06:30;39.20;;;24.15;;
39104;SDS011;46464;51.154;13.812;2023-03-01T10:09:02;38.30;;;23.15;;
39104;SDS011;46464;51.154;13.812;2023-03-01T10:11:37;41.42;;;24.90;;
39104;SDS011;46464;51.154;13.812;2023-03-01T10:17:04;44.00;;;25.00;;
39104;SDS011;46464;51.154;13.812;2023-03-01T10:19:39;39.20;;;22.73;;
39104;SDS011;46464;51.154;13.812;2023-03-01T10:22:13;36.15;;;22.30;;
39104;SDS011;46464;51.154;13.812;2023-03-01T10:24:42;32.05;;;22.92;;
39104;SDS011;46464;51.154;13.812;2023-03-01T10:32:18;40.53;;;24.58;;
39104;SDS011;46464;51.154;13.812;2023-03-01T10:34:46;35.47;;;21.67;;
39104;SDS011;46464;51.154;13.812;2023-03-01T10:37:14;40.25;;;23.88;;
39104;SDS011;46464;51.154;13.812;2023-03-01T10:39:55;31.80;;;19.92;;
39104;SDS011;46464;51.154;13.812;2023-03-01T10:42:25;30.17;;;19.52;;
39104;SDS011;46464;51.154;13.812;2023-03-01T10:44:57;31.60;;;20.45;;
39104;SDS011;46464;51.154;13.812;2023-03-01T10:47:25;29.20;;;19.45;;
39104;SDS011;46464;51.154;13.812;2023-03-01T10:52:20;28.83;;;19.65;;
39104;SDS011;46464;51.154;13.812;2023-03-01T10:54:56;27.55;;;18.77;;
39104;SDS011;46464;51.154;13.812;2023-03-01T10:57:30;29.00;;;19.60;;
39104;SDS011;46464;51.154;13.812;2023-03-01T11:00:16;27.77;;;18.88;;
39104;SDS011;46464;51.154;13.812;2023-03-01T11:02:49;23.00;;;14.88;;
39104;SDS011;46464;51.154;13.812;2023-03-01T11:07:50;27.23;;;18.65;;
39104;SDS011;46464;51.154;13.812;2023-03-01T11:10:30;25.58;;;17.02;;
39104;SDS011;46464;51.154;13.812;2023-03-01T11:13:17;26.15;;;15.95;;
39104;SDS011;46464;51.154;13.812;2023-03-01T11:15:58;24.17;;;17.00;;
39104;SDS011;46464;51.154;13.812;2023-03-01T11:18:27;25.90;;;16.80;;
39104;SDS011;46464;51.154;13.812;2023-03-01T11:21:13;26.05;;;19.23;;
39104;SDS011;46464;51.154;13.812;2023-03-01T11:23:41;23.85;;;17.52;;
39104;SDS011;46464;51.154;13.812;2023-03-01T11:26:12;23.65;;;17.35;;
39104;SDS011;46464;51.154;13.812;2023-03-01T11:31:08;27.73;;;19.33;;
39104;SDS011;46464;51.154;13.812;2023-03-01T11:33:42;30.50;;;18.00;;
39104;SDS011;46464;51.154;13.812;2023-03-01T11:36:19;33.38;;;18.55;;
39104;SDS011;46464;51.154;13.812;2023-03-01T11:38:47;27.67;;;18.35;;
39104;SDS011;46464;51.154;13.812;2023-03-01T11:41:18;32.05;;;18.42;;
39104;SDS011;46464;51.154;13.812;2023-03-01T11:44:05;23.88;;;17.25;;
39104;SDS011;46464;51.154;13.812;2023-03-01T11:46:51;25.88;;;17.75;;
39104;SDS011;46464;51.154;13.812;2023-03-01T11:52:42;26.00;;;17.77;;
39104;SDS011;46464;51.154;13.812;2023-03-01T11:55:21;24.75;;;15.20;;
39104;SDS011;46464;51.154;13.812;2023-03-01T11:58:01;21.27;;;15.48;;
39104;SDS011;46464;51.154;13.812;2023-03-01T12:06:28;22.83;;;15.13;;
39104;SDS011;46464;51.154;13.812;2023-03-01T12:11:51;22.67;;;15.82;;
39104;SDS011;46464;51.154;13.812;2023-03-01T12:14:32;23.98;;;16.42;;
39104;SDS011;46464;51.154;13.812;2023-03-01T12:17:30;21.80;;;15.73;;
39104;SDS011;46464;51.154;13.812;2023-03-01T12:23:15;21.70;;;14.77;;
39104;SDS011;46464;51.154;13.812;2023-03-01T12:26:26;23.05;;;15.40;;
39104;SDS011;46464;51.154;13.812;2023-03-01T12:34:24;22.58;;;15.55;;
39104;SDS011;46464;51.154;13.812;2023-03-01T12:39:34;22.90;;;15.63;;
39104;SDS011;46464;51.154;13.812;2023-03-01T12:42:24;23.10;;;16.13;;
39104;SDS011;46464;51.154;13.812;2023-03-01T12:45:26;26.08;;;16.02;;
39104;SDS011;46464;51.154;13.812;2023-03-01T12:48:09;28.80;;;16.50;;
39104;SDS011;46464;51.154;13.812;2023-03-01T12:50:53;26.38;;;17.38;;
39104;SDS011;46464;51.154;13.812;2023-03-01T12:53:31;25.38;;;18.08;;
39104;SDS011;46464;51.154;13.812;2023-03-01T13:04:14;24.13;;;15.95;;
39104;SDS011;46464;51.154;13.812;2023-03-01T13:07:02;21.27;;;16.38;;
39104;SDS011;46464;51.154;13.812;2023-03-01T13:15:34;24.33;;;16.13;;
39104;SDS011;46464;51.154;13.812;2023-03-01T13:18:03;23.05;;;15.35;;
39104;SDS011;46464;51.154;13.812;2023-03-01T13:47:05;22.58;;;15.30;;
39104;SDS011;46464;51.154;13.812;2023-03-01T13:49:41;24.40;;;15.35;;
39104;SDS011;46464;51.154;13.812;2023-03-01T13:57:41;19.85;;;14.68;;
39104;SDS011;46464;51.154;13.812;2023-03-01T14:03:14;20.08;;;14.50;;
39104;SDS011;46464;51.154;13.812;2023-03-01T14:05:56;20.88;;;15.20;;
39104;SDS011;46464;51.154;13.812;2023-03-01T14:08:40;21.98;;;15.07;;
39104;SDS011;46464;51.154;13.812;2023-03-01T14:13:40;23.27;;;16.30;;
39104;SDS011;46464;51.154;13.812;2023-03-01T14:19:06;22.23;;;15.88;;
39104;SDS011;46464;51.154;13.812;2023-03-01T14:22:10;22.67;;;14.70;;
39104;SDS011;46464;51.154;13.812;2023-03-01T14:27:11;20.42;;;14.75;;
39104;SDS011;46464;51.154;13.812;2023-03-01T14:29:39;23.88;;;15.48;;
39104;SDS011;46464;51.154;13.812;2023-03-01T14:32:10;23.02;;;15.70;;
39104;SDS011;46464;51.154;13.812;2023-03-01T14:34:44;22.10;;;14.82;;
39104;SDS011;46464;51.154;13.812;2023-03-01T14:37:22;22.00;;;16.38;;
39104;SDS011;46464;51.154;13.812;2023-03-01T14:39:53;20.75;;;14.13;;
39104;SDS011;46464;51.154;13.812;2023-03-01T14:42:21;20.15;;;15.77;;
39104;SDS011;46464;51.154;13.812;2023-03-01T14:44:51;20.55;;;14.30;;
39104;SDS011;46464;51.154;13.812;2023-03-01T14:47:27;19.83;;;14.10;;
39104;SDS011;46464;51.154;13.812;2023-03-01T14:49:57;19.77;;;13.90;;
39104;SDS011;46464;51.154;13.812;2023-03-01T14:52:30;23.38;;;16.40;;
39104;SDS011;46464;51.154;13.812;2023-03-01T14:55:21;20.42;;;15.40;;
39104;SDS011;46464;51.154;13.812;2023-03-01T14:57:56;23.55;;;15.93;;
39104;SDS011;46464;51.154;13.812;2023-03-01T15:00:25;21.05;;;14.90;;
39104;SDS011;46464;51.154;13.812;2023-03-01T15:02:55;19.05;;;13.25;;
39104;SDS011;46464;51.154;13.812;2023-03-01T15:05:30;21.02;;;14.40;;
39104;SDS011;46464;51.154;13.812;2023-03-01T15:07:58;19.02;;;13.90;;
39104;SDS011;46464;51.154;13.812;2023-03-01T15:10:31;18.58;;;13.90;;
39104;SDS011;46464;51.154;13.812;2023-03-01T15:13:12;19.55;;;14.13;;
39104;SDS011;46464;51.154;13.812;2023-03-01T15:15:43;21.00;;;14.10;;
39104;SDS011;46464;51.154;13.812;2023-03-01T15:18:26;18.95;;;13.30;;
39104;SDS011;46464;51.154;13.812;2023-03-01T15:20:55;20.83;;;13.95;;
39104;SDS011;46464;51.154;13.812;2023-03-01T15:23:34;20.15;;;13.48;;
39104;SDS011;46464;51.154;13.812;2023-03-01T15:26:03;22.42;;;13.82;;
39104;SDS011;46464;51.154;13.812;2023-03-01T15:28:37;17.45;;;12.50;;
39104;SDS011;46464;51.154;13.812;2023-03-01T15:31:22;19.02;;;13.35;;
39104;SDS011;46464;51.154;13.812;2023-03-01T15:33:50;19.10;;;13.38;;
39104;SDS011;46464;51.154;13.812;2023-03-01T15:38:57;19.52;;;12.75;;
39104;SDS011;46464;51.154;13.812;2023-03-01T15:41:37;18.35;;;11.95;;
39104;SDS011;46464;51.154;13.812;2023-03-01T15:44:15;16.92;;;12.23;;
39104;SDS011;46464;51.154;13.812;2023-03-01T15:46:47;20.13;;;13.23;;
39104;SDS011;46464;51.154;13.812;2023-03-01T15:49:57;18.85;;;12.85;;
39104;SDS011;46464;51.154;13.812;2023-03-01T15:52:29;18.88;;;12.55;;
39104;SDS011;46464;51.154;13.812;2023-03-01T15:55:06;18.90;;;12.43;;
39104;SDS011;46464;51.154;13.812;2023-03-01T15:57:41;19.65;;;12.50;;
39104;SDS011;46464;51.154;13.812;2023-03-01T16:00:12;16.35;;;12.52;;
39104;SDS011;46464;51.154;13.812;2023-03-01T16:02:40;17.88;;;11.93;;
39104;SDS011;46464;51.154;13.812;2023-03-01T16:05:16;17.83;;;12.20;;
39104;SDS011;46464;51.154;13.812;2023-03-01T16:07:46;18.08;;;12.57;;
39104;SDS011;46464;51.154;13.812;2023-03-01T16:10:12;19.10;;;11.43;;
39104;SDS011;46464;51.154;13.812;2023-03-01T16:12:39;17.45;;;11.63;;
39104;SDS011;46464;51.154;13.812;2023-03-01T16:15:22;19.27;;;10.60;;
39104;SDS011;46464;51.154;13.812;2023-03-01T16:17:58;15.70;;;10.88;;
39104;SDS011;46464;51.154;13.812;2023-03-01T16:20:25;17.58;;;11.57;;
39104;SDS011;46464;51.154;13.812;2023-03-01T16:22:54;17.63;;;11.63;;
39104;SDS011;46464;51.154;13.812;2023-03-01T16:25:21;17.85;;;11.23;;
39104;SDS011;46464;51.154;13.812;2023-03-01T16:30:19;14.70;;;10.52;;
39104;SDS011;46464;51.154;13.812;2023-03-01T16:32:47;13.50;;;10.27;;
39104;SDS011;46464;51.154;13.812;2023-03-01T16:35:16;15.60;;;10.10;;
39104;SDS011;46464;51.154;13.812;2023-03-01T16:37:44;15.27;;;9.77;;
39104;SDS011;46464;51.154;13.812;2023-03-01T16:42:56;15.38;;;9.90;;
39104;SDS011;46464;51.154;13.812;2023-03-01T16:45:33;15.55;;;10.43;;
39104;SDS011;46464;51.154;13.812;2023-03-01T16:48:02;15.73;;;11.93;;
39104;SDS011;46464;51.154;13.812;2023-03-01T16:50:29;17.77;;;10.93;;
39104;SDS011;46464;51.154;13.812;2023-03-01T16:52:55;22.95;;;14.73;;
39104;SDS011;46464;51.154;13.812;2023-03-01T16:55:22;27.65;;;16.85;;
39104;SDS011;46464;51.154;13.812;2023-03-01T17:00:17;23.60;;;15.10;;
39104;SDS011;46464;51.154;13.812;2023-03-01T17:02:44;20.60;;;12.77;;
39104;SDS011;46464;51.154;13.812;2023-03-01T17:05:10;19.10;;;11.77;;
39104;SDS011;46464;51.154;13.812;2023-03-01T17:07:38;17.02;;;11.65;;
39104;SDS011;46464;51.154;13.812;2023-03-01T17:10:06;16.55;;;10.15;;
39104;SDS011;46464;51.154;13.812;2023-03-01T17:12:36;14.00;;;9.57;;